createdAt,value
2022-07-31T00:00:50.434Z,81.43
2022-07-31T00:05:51.006Z,81.54
2022-07-31T00:10:52.954Z,82.06
2022-07-31T00:15:53.778Z,81.82
2022-07-31T00:20:54.426Z,82.22
2022-07-31T00:25:56.503Z,82.83
2022-07-31T00:30:57.118Z,83.27
2022-07-31T00:35:57.745Z,83.59
2022-07-31T00:40:59.705Z,83.95
2022-07-31T00:46:00.869Z,84.51
2022-07-31T00:51:01.902Z,84.83
2022-07-31T00:56:03.897Z,84.97
2022-07-31T01:01:04.599Z,85.12
2022-07-31T01:06:05.378Z,85.77
2022-07-31T01:11:12.175Z,85.86
2022-07-31T01:16:14.704Z,86.08
2022-07-31T01:21:21.717Z,86.61
2022-07-31T01:26:38.985Z,86.85
2022-07-31T01:31:46.288Z,87.38
2022-07-31T01:36:55.033Z,87.37
2022-07-31T01:41:57.317Z,87.57
2022-07-31T01:47:00.179Z,87.53
2022-07-31T01:52:05.625Z,88.00
2022-07-31T01:57:08.812Z,87.84
2022-07-31T02:02:17.176Z,87.87
2022-07-31T02:07:19.014Z,87.83
2022-07-31T02:12:20.352Z,88.13
2022-07-31T02:17:35.890Z,88.09
2022-07-31T02:22:55.070Z,87.88
2022-07-31T02:27:59.185Z,88.05
2022-07-31T02:33:03.067Z,87.88
2022-07-31T02:38:04.706Z,88.45
2022-07-31T02:43:06.605Z,88.43
2022-07-31T02:48:09.948Z,88.72
2022-07-31T02:53:15.124Z,88.72
2022-07-31T02:58:15.892Z,88.76
2022-07-31T03:03:19.959Z,88.97
2022-07-31T03:08:20.783Z,88.71
2022-07-31T03:13:28.412Z,88.70
2022-07-31T03:18:30.641Z,88.93
2022-07-31T03:23:36.240Z,89.14
2022-07-31T03:28:49.570Z,89.01
2022-07-31T03:33:51.635Z,88.55
2022-07-31T03:38:52.405Z,88.55
2022-07-31T03:44:03.789Z,88.43
2022-07-31T03:49:06.361Z,88.42
2022-07-31T03:54:08.373Z,88.95
2022-07-31T03:59:19.281Z,88.70
2022-07-31T04:04:23.542Z,88.75
2022-07-31T04:09:31.016Z,88.65
2022-07-31T04:14:31.669Z,88.16
2022-07-31T04:19:33.976Z,87.96
2022-07-31T04:24:34.782Z,88.01
2022-07-31T04:29:41.338Z,87.46
2022-07-31T04:34:43.692Z,86.93
2022-07-31T04:39:44.327Z,86.86
2022-07-31T04:44:45.653Z,86.15
2022-07-31T04:49:47.890Z,86.01
2022-07-31T04:54:51.687Z,85.34
2022-07-31T04:59:57.698Z,84.97
2022-07-31T05:05:00.687Z,84.02
2022-07-31T05:10:06.933Z,83.46
2022-07-31T05:15:09.983Z,83.02
2022-07-31T05:20:13.294Z,81.95
2022-07-31T05:25:31.619Z,81.03
2022-07-31T05:30:33.638Z,80.82
2022-07-31T05:35:35.669Z,80.25
2022-07-31T05:40:36.455Z,79.80
2022-07-31T05:46:06.414Z,78.82
2022-07-31T05:51:10.412Z,77.77
2022-07-31T05:56:11.264Z,76.13
2022-07-31T06:01:15.724Z,74.64
2022-07-31T06:06:18.491Z,71.31
2022-07-31T06:11:19.256Z,69.66
2022-07-31T06:16:20.154Z,68.73
2022-07-31T06:21:24.183Z,67.70
2022-07-31T06:26:27.718Z,66.78
2022-07-31T06:31:28.606Z,66.71
2022-07-31T06:36:32.388Z,66.25
2022-07-31T06:41:48.048Z,66.16
2022-07-31T06:47:03.810Z,65.33
2022-07-31T06:52:25.701Z,65.08
2022-07-31T06:57:27.262Z,64.55
2022-07-31T07:02:28.670Z,64.14
2022-07-31T07:07:31.782Z,63.27
2022-07-31T07:12:34.784Z,62.83
2022-07-31T07:17:36.576Z,62.51
2022-07-31T07:22:42.570Z,62.18
2022-07-31T07:27:45.724Z,61.64
2022-07-31T07:32:46.401Z,61.15
2022-07-31T07:37:48.929Z,60.65
2022-07-31T07:42:50.114Z,60.38
2022-07-31T07:47:53.724Z,60.47
2022-07-31T07:53:16.234Z,59.93
2022-07-31T07:58:35.625Z,59.55
2022-07-31T08:03:54.753Z,59.33
2022-07-31T08:08:57.442Z,59.24
2022-07-31T08:14:16.581Z,58.36
2022-07-31T08:19:36.155Z,57.98
2022-07-31T08:24:38.337Z,57.32
2022-07-31T08:29:39.839Z,56.76
2022-07-31T08:34:50.200Z,56.37
2022-07-31T08:39:52.670Z,55.33
2022-07-31T08:44:53.347Z,55.50
2022-07-31T08:50:00.642Z,55.02
2022-07-31T08:55:08.643Z,54.56
2022-07-31T09:00:13.325Z,53.99
2022-07-31T09:05:14.360Z,53.31
2022-07-31T09:10:29.962Z,53.74
2022-07-31T09:15:32.897Z,51.81
2022-07-31T09:20:36.548Z,52.33
2022-07-31T09:25:38.975Z,50.75
2022-07-31T09:30:55.853Z,49.45
2022-07-31T09:36:16.230Z,48.68
2022-07-31T09:41:56.734Z,49.19
2022-07-31T09:46:50.265Z,48.16
2022-07-31T09:51:51.107Z,47.47
2022-07-31T09:56:56.826Z,48.11
2022-07-31T10:01:59.414Z,48.17
2022-07-31T10:07:01.404Z,46.41
2022-07-31T10:12:04.152Z,45.48
2022-07-31T10:17:09.400Z,45.63
2022-07-31T10:22:28.412Z,45.01
2022-07-31T10:27:31.929Z,45.70
2022-07-31T10:32:43.185Z,46.78
2022-07-31T10:38:13.160Z,46.05
2022-07-31T10:43:29.028Z,45.13
2022-07-31T10:48:52.272Z,44.57
2022-07-31T10:54:15.878Z,43.71
2022-07-31T10:59:45.325Z,43.37
2022-07-31T11:05:13.207Z,43.99
2022-07-31T11:10:37.304Z,44.35
2022-07-31T11:16:07.373Z,45.72
2022-07-31T11:21:37.646Z,44.71
2022-07-31T11:26:41.331Z,43.40
2022-07-31T11:31:44.139Z,42.92
2022-07-31T11:36:48.083Z,43.97
2022-07-31T11:41:51.786Z,43.73
2022-07-31T11:46:55.775Z,46.28
2022-07-31T11:52:01.601Z,44.97
2022-07-31T11:57:03.055Z,43.87
2022-07-31T12:02:06.986Z,44.78
2022-07-31T12:07:09.462Z,43.22
2022-07-31T12:12:11.792Z,42.35
2022-07-31T12:17:21.335Z,41.99
2022-07-31T12:22:22.135Z,41.35
2022-07-31T12:27:22.754Z,41.86
2022-07-31T12:32:30.786Z,40.67
2022-07-31T12:37:45.782Z,38.79
2022-07-31T12:42:46.429Z,39.35
2022-07-31T12:47:52.307Z,37.82
2022-07-31T12:52:53.456Z,37.94
2022-07-31T12:57:55.032Z,38.37
2022-07-31T13:02:58.725Z,37.80
2022-07-31T13:07:59.452Z,36.19
2022-07-31T13:13:00.278Z,35.27
2022-07-31T13:18:03.269Z,34.04
2022-07-31T13:23:05.181Z,35.02
2022-07-31T13:28:05.905Z,35.34
2022-07-31T13:33:07.881Z,35.37
2022-07-31T13:38:08.525Z,35.30
2022-07-31T13:43:09.144Z,34.07
2022-07-31T13:48:11.380Z,34.74
2022-07-31T13:53:12.012Z,34.62
2022-07-31T13:58:12.834Z,36.19
2022-07-31T14:03:18.491Z,36.89
2022-07-31T14:08:30.231Z,35.83
2022-07-31T14:13:44.165Z,36.08
2022-07-31T14:18:46.222Z,35.93
2022-07-31T14:23:46.915Z,35.74
2022-07-31T14:28:47.540Z,35.81
2022-07-31T14:33:49.515Z,34.49
2022-07-31T14:38:50.127Z,34.09
2022-07-31T14:43:50.778Z,34.40
2022-07-31T14:48:52.746Z,34.04
2022-07-31T14:53:53.409Z,33.10
2022-07-31T14:58:57.666Z,32.75
2022-07-31T15:04:00.706Z,31.99
2022-07-31T15:09:01.327Z,30.72
2022-07-31T15:14:02.016Z,31.03
2022-07-31T15:19:03.997Z,30.21
2022-07-31T15:24:04.910Z,29.96
2022-07-31T15:29:05.635Z,29.60
2022-07-31T15:34:07.591Z,28.71
2022-07-31T15:39:08.343Z,29.35
2022-07-31T15:44:09.051Z,29.93
2022-07-31T15:49:11.084Z,29.56
2022-07-31T15:54:14.193Z,30.38
2022-07-31T15:59:15.914Z,30.32
2022-07-31T16:04:17.881Z,30.46
2022-07-31T16:09:19.593Z,31.05
2022-07-31T16:14:20.257Z,32.06
2022-07-31T16:19:24.794Z,32.69
2022-07-31T16:24:25.552Z,31.88
2022-07-31T16:30:00.882Z,31.31
2022-07-31T16:34:52.675Z,30.37
2022-07-31T16:39:55.881Z,29.20
2022-07-31T16:44:58.297Z,29.47
2022-07-31T16:50:02.917Z,28.62
2022-07-31T16:55:03.928Z,27.43
2022-07-31T17:00:05.544Z,26.12
2022-07-31T17:05:08.679Z,27.48
2022-07-31T17:10:10.737Z,26.29
2022-07-31T17:15:12.231Z,26.71
2022-07-31T17:20:14.880Z,28.66
2022-07-31T17:25:15.684Z,30.85
2022-07-31T17:30:16.956Z,32.30
2022-07-31T17:35:19.445Z,33.62
2022-07-31T17:40:41.147Z,33.36
2022-07-31T17:45:59.336Z,33.72
2022-07-31T17:51:03.413Z,33.98
2022-07-31T17:56:05.285Z,34.83
2022-07-31T18:01:07.399Z,35.03
2022-07-31T18:06:09.525Z,35.59
2022-07-31T18:11:10.180Z,35.86
2022-07-31T18:16:10.830Z,36.41
2022-07-31T18:21:13.453Z,36.97
2022-07-31T18:26:14.096Z,37.15
2022-07-31T18:31:34.613Z,37.43
2022-07-31T18:36:36.940Z,37.42
2022-07-31T18:41:38.312Z,37.46
2022-07-31T18:46:38.945Z,38.11
2022-07-31T18:51:40.990Z,38.24
2022-07-31T18:56:42.682Z,38.12
2022-07-31T19:01:43.382Z,39.00
2022-07-31T19:06:45.597Z,39.01
2022-07-31T19:11:50.665Z,38.81
2022-07-31T19:16:54.691Z,39.31
2022-07-31T19:21:57.343Z,39.63
2022-07-31T19:26:58.219Z,40.11
2022-07-31T19:31:59.398Z,40.14
2022-07-31T19:37:01.857Z,40.40
2022-07-31T19:42:11.487Z,40.62
2022-07-31T19:47:13.075Z,41.68
2022-07-31T19:52:15.208Z,42.36
2022-07-31T19:57:15.994Z,43.00
2022-07-31T20:02:17.186Z,42.56
2022-07-31T20:07:19.363Z,42.46
2022-07-31T20:12:20.251Z,43.07
2022-07-31T20:17:20.974Z,43.40
2022-07-31T20:22:23.797Z,43.80
2022-07-31T20:27:24.521Z,44.43
2022-07-31T20:32:25.210Z,44.89
2022-07-31T20:37:27.380Z,45.28
2022-07-31T20:42:28.089Z,45.65
2022-07-31T20:47:28.798Z,46.25
2022-07-31T20:52:30.953Z,46.36
2022-07-31T20:57:31.645Z,46.68
2022-07-31T21:02:32.274Z,46.54
2022-07-31T21:07:34.214Z,47.03
2022-07-31T21:12:34.880Z,47.34
2022-07-31T21:17:35.943Z,47.39
2022-07-31T21:22:37.955Z,47.73
2022-07-31T21:27:39.941Z,47.88
2022-07-31T21:32:40.922Z,47.83
2022-07-31T21:37:44.526Z,47.80
2022-07-31T21:42:47.453Z,48.27
2022-07-31T21:47:54.605Z,48.79
2022-07-31T21:52:56.551Z,48.79
2022-07-31T21:57:59.962Z,48.56
2022-07-31T22:03:01.137Z,49.22
2022-07-31T22:08:03.110Z,49.83
2022-07-31T22:13:05.324Z,50.73
2022-07-31T22:18:06.737Z,50.93
2022-07-31T22:23:08.829Z,50.96
2022-07-31T22:28:09.847Z,51.66
2022-07-31T22:33:10.678Z,51.83
2022-07-31T22:38:12.706Z,52.24
2022-07-31T22:44:11.137Z,51.84
2022-07-31T22:48:34.473Z,50.81
2022-07-31T22:53:37.140Z,50.66
2022-07-31T22:58:37.873Z,50.67
2022-07-31T23:03:38.542Z,50.82
2022-07-31T23:08:40.484Z,51.15
2022-07-31T23:13:41.098Z,51.04
2022-07-31T23:18:41.743Z,51.22
2022-07-31T23:23:49.057Z,51.23
2022-07-31T23:28:50.686Z,51.87
2022-07-31T23:33:51.719Z,51.59
2022-07-31T23:38:53.645Z,51.95
2022-07-31T23:43:55.206Z,52.57
2022-07-31T23:48:56.338Z,52.84
2022-07-31T23:53:58.344Z,53.49
2022-07-31T23:58:58.958Z,53.61
